OIBL METAR and TAF | Updated Today

OIBL METAR

Bandar Lengeh Airport

Observation time: 2:35 hr. ago

OIBL 251800Z 27010KT 3000 DU NSC 34/15 Q1002

Need help? Read our tutorial on how to read METARs or read the parsed version below.

Bandar Lengeh Airport (OIBL) METAR

  • Weather conditions on Wed, 25 May 2022 18:00:00 +0000 (2:35 hr. ago):
  • Present conditions: Widespread dust
  • Clouds: No significant clouds are observed
  • Visibility: 3000 meters
  • Wind: 270 degrees at 10 knots
  • Temperature: 34 celsius
  • Dew point: 15 celsius
  • Pressure: 1002 millibars
  • Remarks: None


Useful to know...